Time;durP1;ratioP1;P1;durP2;ratioP2;P2;SDS_P1;SDS_P2;PMS_P1;PMS_P2;Temp;Humidity;BMP_temperature;BMP_pressure;BME280_temperature;BME280_humidity;BME280_pressure;Samples;Min_cycle;Max_cycle;Signal;HPM_P1;HPM_P2
2022/09/16 00:00:20;;;;;;;;;;;12.00;99.90;;;;;;5131475;27;20015;-63
2022/09/16 00:02:46;;;;;;;;;;;12.00;99.90;;;;;;5112696;27;19931;-62
2022/09/16 00:05:12;;;;;;;;;;;12.00;99.90;;;;;;5131655;27;19959;-62
2022/09/16 00:07:38;;;;;;;;;;;12.10;99.90;;;;;;5113742;27;20035;-63
2022/09/16 00:10:04;;;;;;;;;;;12.10;99.90;;;;;;5107723;28;19964;-63
2022/09/16 00:12:30;;;;;;;;;;;12.10;99.90;;;;;;5103897;28;20019;-63
2022/09/16 00:14:55;;;;;;;;;;;12.10;99.90;;;;;;5131733;27;20380;-63
2022/09/16 00:17:21;;;;;;;;;;;12.10;99.90;;;;;;5126693;27;19919;-63
2022/09/16 00:19:49;;;;;;;;;;;12.10;99.90;;;;;;5131350;27;19931;-63
2022/09/16 00:22:15;;;;;;;;;;;12.10;99.90;;;;;;5131567;27;19926;-63
2022/09/16 00:24:40;;;;;;;;;;;12.10;99.90;;;;;;5128699;27;20392;-63
2022/09/16 00:27:06;;;;;;;;;;;12.00;99.90;;;;;;5131366;28;19923;-64
2022/09/16 00:29:31;;;;;;;;;;;12.00;99.90;;;;;;5108701;28;19934;-63
2022/09/16 00:31:57;;;;;;;;;;;12.00;99.90;;;;;;5131183;28;19927;-63
2022/09/16 00:34:22;;;;;;;;;;;12.00;99.90;;;;;;5125578;28;19928;-63
2022/09/16 00:36:48;;;;;;;;;;;12.00;99.90;;;;;;5097997;28;19959;-63
2022/09/16 00:39:13;;;;;;;;;;;12.00;99.90;;;;;;5108471;27;19923;-63
2022/09/16 00:41:39;;;;;;;;;;;12.00;99.90;;;;;;5130770;28;19937;-62
2022/09/16 00:44:25;;;;;;;;;;;12.00;99.90;;;;;;5130488;28;19969;-62
2022/09/16 00:46:51;;;;;;;;;;;12.00;99.90;;;;;;5076259;28;20325;-63
2022/09/16 00:49:24;;;;;;;;;;;12.00;99.90;;;;;;5123532;28;19928;-62
2022/09/16 00:51:51;;;;;;;;;;;12.00;99.90;;;;;;5105047;28;19973;-62
2022/09/16 00:54:17;;;;;;;;;;;12.00;99.90;;;;;;5131128;28;19930;-62
2022/09/16 00:56:44;;;;;;;;;;;12.00;99.90;;;;;;5116059;28;20295;-63
2022/09/16 00:59:14;;;;;;;;;;;11.90;99.90;;;;;;5110040;28;19930;-63
2022/09/16 01:01:41;;;;;;;;;;;11.90;99.90;;;;;;5111550;28;19926;-63
2022/09/16 01:04:12;;;;;;;;;;;11.80;99.90;;;;;;5095989;28;19998;-63
2022/09/16 01:06:38;;;;;;;;;;;11.80;99.90;;;;;;5110457;27;20028;-64
2022/09/16 01:09:04;;;;;;;;;;;11.80;99.90;;;;;;5100242;28;20064;-67
2022/09/16 01:11:29;;;;;;;;;;;11.80;99.90;;;;;;5112655;27;20006;-64
2022/09/16 01:14:51;;;;;;;;;;;11.80;99.90;;;;;;5133498;27;19923;-64
2022/09/16 01:16:43;;;;;;;;;;;11.80;99.90;;;;;;5134108;27;19930;-64
2022/09/16 01:19:29;;;;;;;;;;;11.70;99.90;;;;;;5087712;27;20392;-64
2022/09/16 01:22:15;;;;;;;;;;;11.70;99.90;;;;;;5128326;27;20010;-63
2022/09/16 01:24:41;;;;;;;;;;;11.40;99.90;;;;;;5084079;27;19924;-63
2022/09/16 01:27:13;;;;;;;;;;;11.60;99.90;;;;;;5108285;28;19919;-64
2022/09/16 01:29:47;;;;;;;;;;;11.60;99.90;;;;;;5128271;27;20010;-64
2022/09/16 01:32:18;;;;;;;;;;;11.60;99.90;;;;;;5113772;27;19942;-64
2022/09/16 01:35:01;;;;;;;;;;;11.50;99.90;;;;;;5113253;27;20002;-64
2022/09/16 01:37:45;;;;;;;;;;;11.50;99.90;;;;;;5134598;27;20006;-64
2022/09/16 01:40:11;;;;;;;;;;;11.50;99.90;;;;;;5134253;27;20308;-64
2022/09/16 01:42:59;;;;;;;;;;;11.50;99.90;;;;;;5127601;27;19929;-66
2022/09/16 01:45:57;;;;;;;;;;;11.50;99.90;;;;;;5120655;27;19943;-64
2022/09/16 01:48:30;;;;;;;;;;;11.50;99.90;;;;;;5064877;27;19923;-64
2022/09/16 01:50:59;;;;;;;;;;;11.60;99.90;;;;;;5099907;27;19923;-64
2022/09/16 01:53:37;;;;;;;;;;;11.60;99.90;;;;;;5113723;27;19919;-64
2022/09/16 01:56:09;;;;;;;;;;;11.60;99.90;;;;;;5130251;27;19923;-64
2022/09/16 01:58:46;;;;;;;;;;;11.60;99.90;;;;;;5095437;27;20277;-65
2022/09/16 02:01:15;;;;;;;;;;;11.70;99.90;;;;;;5122380;27;19992;-64
2022/09/16 02:03:42;;;;;;;;;;;11.70;99.90;;;;;;5131370;27;19923;-67
2022/09/16 02:06:09;;;;;;;;;;;11.70;99.90;;;;;;5115476;27;19926;-64
2022/09/16 02:08:43;;;;;;;;;;;11.80;99.90;;;;;;5125490;27;20349;-64
2022/09/16 02:11:11;;;;;;;;;;;11.80;99.90;;;;;;5134451;27;20015;-64
2022/09/16 02:13:38;;;;;;;;;;;11.80;99.90;;;;;;5132010;27;19984;-63
2022/09/16 02:16:09;;;;;;;;;;;11.80;99.90;;;;;;5116337;27;19964;-63
2022/09/16 02:18:37;;;;;;;;;;;11.80;99.90;;;;;;5112217;28;19924;-64
2022/09/16 02:21:04;;;;;;;;;;;11.80;99.90;;;;;;5128457;27;19918;-63
2022/09/16 02:23:33;;;;;;;;;;;11.70;99.90;;;;;;5131742;27;19927;-63
2022/09/16 02:26:00;;;;;;;;;;;11.70;99.90;;;;;;5132648;27;19919;-63
2022/09/16 02:28:29;;;;;;;;;;;11.70;99.90;;;;;;5133469;27;19931;-63
2022/09/16 02:30:55;;;;;;;;;;;11.60;99.90;;;;;;5094244;28;20360;-63
2022/09/16 02:33:22;;;;;;;;;;;11.60;99.90;;;;;;5132939;27;19974;-62
2022/09/16 02:35:50;;;;;;;;;;;11.60;99.90;;;;;;5115757;27;19923;-63
2022/09/16 02:38:24;;;;;;;;;;;11.60;99.90;;;;;;5133151;27;19966;-62
2022/09/16 02:40:51;;;;;;;;;;;11.60;99.90;;;;;;5132574;27;20338;-62
2022/09/16 02:43:17;;;;;;;;;;;11.50;99.90;;;;;;5134433;27;19919;-63
2022/09/16 02:45:58;;;;;;;;;;;11.50;99.90;;;;;;5131329;27;20581;-63
2022/09/16 02:48:28;;;;;;;;;;;11.50;99.90;;;;;;5133039;27;19923;-63
2022/09/16 02:51:02;;;;;;;;;;;11.60;99.90;;;;;;5132743;27;19931;-64
2022/09/16 02:53:38;;;;;;;;;;;11.50;99.90;;;;;;5115666;27;19923;-63
2022/09/16 02:56:14;;;;;;;;;;;11.50;99.90;;;;;;5129298;27;19923;-64
2022/09/16 02:58:40;;;;;;;;;;;11.50;99.90;;;;;;5132095;27;19966;-63
2022/09/16 03:01:06;;;;;;;;;;;11.50;99.90;;;;;;5132063;27;20561;-63
2022/09/16 03:03:31;;;;;;;;;;;11.50;99.90;;;;;;5132873;27;19926;-64
2022/09/16 03:06:16;;;;;;;;;;;11.50;99.90;;;;;;5097682;27;19952;-63
2022/09/16 03:08:43;;;;;;;;;;;11.50;99.90;;;;;;5132830;27;19923;-63
2022/09/16 03:11:14;;;;;;;;;;;11.50;99.90;;;;;;5127402;27;20002;-63
2022/09/16 03:13:49;;;;;;;;;;;11.50;99.90;;;;;;5114401;27;19919;-63
2022/09/16 03:16:36;;;;;;;;;;;11.50;99.90;;;;;;5130712;27;20045;-63
2022/09/16 03:19:09;;;;;;;;;;;11.50;99.90;;;;;;5118728;27;19968;-62
2022/09/16 03:21:42;;;;;;;;;;;11.50;99.90;;;;;;5113118;27;20030;-62
2022/09/16 03:24:08;;;;;;;;;;;11.50;99.90;;;;;;5107000;27;20284;-62
2022/09/16 03:26:35;;;;;;;;;;;11.40;99.90;;;;;;5130592;27;19920;-63
2022/09/16 03:29:14;;;;;;;;;;;11.40;99.90;;;;;;5112984;27;19923;-62
2022/09/16 03:31:42;;;;;;;;;;;11.30;99.90;;;;;;5139363;27;19978;-63
2022/09/16 03:34:19;;;;;;;;;;;11.30;99.90;;;;;;5127634;27;20002;-62
2022/09/16 03:36:57;;;;;;;;;;;11.30;99.90;;;;;;5113843;27;19923;-63
2022/09/16 03:39:22;;;;;;;;;;;11.30;99.90;;;;;;5124969;27;19923;-62
2022/09/16 03:41:48;;;;;;;;;;;11.20;99.90;;;;;;5113688;27;19954;-62
2022/09/16 03:44:14;;;;;;;;;;;11.20;99.90;;;;;;5124815;27;19926;-62
2022/09/16 03:46:39;;;;;;;;;;;11.20;99.90;;;;;;5111831;27;19924;-62
2022/09/16 03:49:05;;;;;;;;;;;11.20;99.90;;;;;;5115956;27;19927;-63
2022/09/16 03:51:31;;;;;;;;;;;11.20;99.90;;;;;;5092645;28;19919;-63
2022/09/16 03:53:56;;;;;;;;;;;11.20;99.90;;;;;;5110866;28;20280;-63
2022/09/16 03:56:23;;;;;;;;;;;11.10;99.90;;;;;;5121886;27;19985;-62
2022/09/16 03:58:48;;;;;;;;;;;11.10;99.90;;;;;;5115781;27;19931;-63
2022/09/16 04:01:14;;;;;;;;;;;11.10;99.90;;;;;;5121115;27;19919;-62
2022/09/16 04:03:40;;;;;;;;;;;11.10;99.90;;;;;;5114158;27;19927;-61
2022/09/16 04:06:06;;;;;;;;;;;11.00;99.90;;;;;;5110595;27;19924;-62
2022/09/16 04:08:31;;;;;;;;;;;11.00;99.90;;;;;;5100976;27;20304;-62
2022/09/16 04:10:58;;;;;;;;;;;11.00;99.90;;;;;;5099465;28;20003;-65
2022/09/16 04:13:24;;;;;;;;;;;10.90;99.90;;;;;;5111015;28;19920;-62
2022/09/16 04:15:49;;;;;;;;;;;11.00;99.90;;;;;;5110925;28;19924;-62
2022/09/16 04:18:16;;;;;;;;;;;10.90;99.90;;;;;;5092226;28;19929;-63
2022/09/16 04:20:41;;;;;;;;;;;10.90;99.90;;;;;;5129304;27;19966;-63
2022/09/16 04:23:07;;;;;;;;;;;10.90;99.90;;;;;;5111081;27;20020;-64
2022/09/16 04:25:33;;;;;;;;;;;10.90;99.90;;;;;;5113298;28;19919;-62
2022/09/16 04:27:58;;;;;;;;;;;10.80;99.90;;;;;;5112307;28;19924;-64
2022/09/16 04:30:24;;;;;;;;;;;10.90;99.90;;;;;;5129741;28;19984;-63
2022/09/16 04:32:56;;;;;;;;;;;10.80;99.90;;;;;;5132532;27;19919;-62
2022/09/16 04:35:23;;;;;;;;;;;10.80;99.90;;;;;;5122946;27;19923;-62
2022/09/16 04:37:50;;;;;;;;;;;10.70;99.90;;;;;;5114733;27;19927;-62
2022/09/16 04:40:15;;;;;;;;;;;10.70;99.90;;;;;;5125447;27;19927;-62
2022/09/16 04:42:46;;;;;;;;;;;10.80;99.90;;;;;;5125273;27;19919;-62
2022/09/16 04:45:12;;;;;;;;;;;10.70;99.90;;;;;;5116085;27;20054;-63
2022/09/16 04:47:37;;;;;;;;;;;10.70;99.90;;;;;;5145382;27;20428;-62
2022/09/16 04:50:03;;;;;;;;;;;10.70;99.90;;;;;;5131196;27;19923;-63
2022/09/16 04:52:32;;;;;;;;;;;10.80;99.90;;;;;;5120872;27;19942;-63
2022/09/16 04:54:57;;;;;;;;;;;10.80;99.90;;;;;;5135214;27;19919;-62
2022/09/16 04:57:23;;;;;;;;;;;10.90;99.90;;;;;;5116218;27;19941;-63
2022/09/16 04:59:48;;;;;;;;;;;10.90;99.90;;;;;;5136387;27;19926;-62
2022/09/16 05:02:14;;;;;;;;;;;10.90;99.90;;;;;;5113822;27;19920;-62
2022/09/16 05:04:39;;;;;;;;;;;10.90;99.90;;;;;;5134931;27;19923;-63
2022/09/16 05:07:05;;;;;;;;;;;10.90;99.90;;;;;;5116027;27;20292;-63
2022/09/16 05:09:31;;;;;;;;;;;10.90;99.90;;;;;;5134666;27;19939;-62
2022/09/16 05:11:56;;;;;;;;;;;10.90;99.90;;;;;;5132865;27;19923;-62
2022/09/16 05:14:22;;;;;;;;;;;10.80;99.90;;;;;;5122075;27;19927;-62
2022/09/16 05:16:48;;;;;;;;;;;10.80;99.90;;;;;;5134531;27;19927;-62
2022/09/16 05:19:14;;;;;;;;;;;10.80;99.90;;;;;;5101509;27;20711;-63
2022/09/16 05:21:40;;;;;;;;;;;10.80;99.90;;;;;;5120141;27;20399;-62
2022/09/16 05:24:07;;;;;;;;;;;10.80;99.90;;;;;;5133468;27;19927;-65
2022/09/16 05:26:34;;;;;;;;;;;10.80;99.90;;;;;;5133796;27;19923;-63
2022/09/16 05:29:04;;;;;;;;;;;10.80;99.90;;;;;;5129892;27;19919;-62
2022/09/16 05:31:31;;;;;;;;;;;10.80;99.90;;;;;;5133848;27;19919;-66
2022/09/16 05:33:58;;;;;;;;;;;10.80;99.90;;;;;;5131767;27;19959;-62
2022/09/16 05:36:24;;;;;;;;;;;10.80;99.90;;;;;;5106322;27;19930;-63
2022/09/16 05:38:50;;;;;;;;;;;10.80;99.90;;;;;;5119712;27;19919;-62
2022/09/16 05:41:15;;;;;;;;;;;10.90;99.90;;;;;;5112978;27;20441;-62
2022/09/16 05:43:41;;;;;;;;;;;10.90;99.90;;;;;;5113824;27;20375;-61
2022/09/16 05:46:07;;;;;;;;;;;11.00;99.90;;;;;;5113485;28;20024;-62
2022/09/16 05:48:33;;;;;;;;;;;11.00;99.90;;;;;;5113234;27;20262;-62
2022/09/16 05:51:03;;;;;;;;;;;11.10;99.90;;;;;;5128429;27;19930;-62
2022/09/16 05:53:29;;;;;;;;;;;11.10;99.90;;;;;;5112673;27;19924;-62
2022/09/16 05:56:09;;;;;;;;;;;11.10;99.90;;;;;;5114413;27;19920;-63
2022/09/16 05:58:35;;;;;;;;;;;11.20;99.90;;;;;;5094841;28;19920;-62
2022/09/16 06:01:05;;;;;;;;;;;11.20;99.90;;;;;;5112917;28;19924;-62
2022/09/16 06:03:31;;;;;;;;;;;11.30;99.90;;;;;;5116744;27;19955;-62
2022/09/16 06:06:00;;;;;;;;;;;11.30;99.90;;;;;;5098974;28;19962;-61
2022/09/16 06:08:27;;;;;;;;;;;11.40;99.90;;;;;;5112661;28;19927;-62
2022/09/16 06:10:53;;;;;;;;;;;11.50;99.90;;;;;;5094618;27;20445;-62
2022/09/16 06:13:19;;;;;;;;;;;11.60;99.90;;;;;;5112676;28;19985;-62
2022/09/16 06:15:53;;;;;;;;;;;11.60;99.90;;;;;;5122904;27;20269;-62
2022/09/16 06:18:19;;;;;;;;;;;11.70;99.90;;;;;;5116607;27;19923;-61
2022/09/16 06:20:45;;;;;;;;;;;11.80;99.90;;;;;;5127114;27;20023;-62
2022/09/16 06:23:11;;;;;;;;;;;11.80;99.90;;;;;;5133416;27;20291;-62
2022/09/16 06:25:36;;;;;;;;;;;11.80;99.90;;;;;;5113106;27;19924;-61
2022/09/16 06:28:03;;;;;;;;;;;11.80;99.90;;;;;;5125734;27;19924;-61
2022/09/16 06:30:28;;;;;;;;;;;11.80;99.90;;;;;;5126624;27;20010;-62
2022/09/16 06:32:54;;;;;;;;;;;11.80;99.90;;;;;;5133052;27;20025;-62
2022/09/16 06:35:20;;;;;;;;;;;11.90;99.90;;;;;;5114366;27;19923;-62
2022/09/16 06:37:45;;;;;;;;;;;11.90;99.90;;;;;;5127854;27;20038;-62
2022/09/16 06:40:11;;;;;;;;;;;12.00;99.90;;;;;;5133948;27;19919;-62
2022/09/16 06:42:36;;;;;;;;;;;12.00;99.90;;;;;;5106459;27;19927;-62
2022/09/16 06:45:03;;;;;;;;;;;12.00;99.90;;;;;;5132606;27;19923;-63
2022/09/16 06:47:29;;;;;;;;;;;12.20;99.90;;;;;;5118735;27;19920;-63
2022/09/16 06:49:55;;;;;;;;;;;12.00;99.90;;;;;;5112360;28;19929;-64
2022/09/16 06:52:21;;;;;;;;;;;12.10;99.90;;;;;;5107150;27;20010;-63
2022/09/16 06:54:46;;;;;;;;;;;12.10;99.90;;;;;;5113672;27;20365;-63
2022/09/16 06:57:12;;;;;;;;;;;12.20;99.90;;;;;;5113777;27;19927;-63
2022/09/16 06:59:38;;;;;;;;;;;12.20;99.90;;;;;;5114554;27;20176;-62
2022/09/16 07:02:03;;;;;;;;;;;12.30;99.90;;;;;;5093553;28;19930;-63
2022/09/16 07:04:29;;;;;;;;;;;12.50;99.90;;;;;;5115355;27;19919;-63
2022/09/16 07:06:57;;;;;;;;;;;12.80;99.90;;;;;;5118616;27;19919;-64
2022/09/16 07:09:22;;;;;;;;;;;12.80;99.90;;;;;;5094548;28;19930;-64
2022/09/16 07:11:48;;;;;;;;;;;12.80;99.90;;;;;;5111422;27;19919;-63
2022/09/16 07:14:14;;;;;;;;;;;12.80;99.90;;;;;;5111026;27;20015;-64
2022/09/16 07:16:39;;;;;;;;;;;12.70;99.90;;;;;;5115842;27;19924;-63
2022/09/16 07:19:05;;;;;;;;;;;12.60;99.90;;;;;;5117037;27;19924;-64
2022/09/16 07:21:31;;;;;;;;;;;12.70;99.90;;;;;;5105409;27;19963;-63
2022/09/16 07:23:57;;;;;;;;;;;12.70;99.90;;;;;;5115291;27;19926;-64
2022/09/16 07:26:27;;;;;;;;;;;12.80;99.90;;;;;;5092821;28;19924;-65
2022/09/16 07:28:53;;;;;;;;;;;12.80;99.90;;;;;;5116157;27;19928;-63
2022/09/16 07:31:25;;;;;;;;;;;12.90;99.90;;;;;;5097082;28;19920;-63
2022/09/16 07:33:52;;;;;;;;;;;13.10;99.90;;;;;;5120212;27;19932;-62
2022/09/16 07:36:22;;;;;;;;;;;13.30;99.90;;;;;;5122391;27;19927;-62
2022/09/16 07:38:48;;;;;;;;;;;13.40;99.90;;;;;;5096428;27;19927;-62
2022/09/16 07:41:21;;;;;;;;;;;13.40;99.90;;;;;;5124799;27;20007;-63
2022/09/16 07:43:48;;;;;;;;;;;13.40;99.90;;;;;;5110250;28;20018;-63
2022/09/16 07:46:15;;;;;;;;;;;13.90;99.90;;;;;;5120569;27;20372;-63
2022/09/16 07:48:41;;;;;;;;;;;14.50;99.90;;;;;;5118300;27;19928;-62
2022/09/16 07:51:08;;;;;;;;;;;15.50;99.90;;;;;;5117234;27;19931;-63
2022/09/16 07:53:34;;;;;;;;;;;16.70;99.90;;;;;;5092712;28;20010;-62
2022/09/16 07:56:04;;;;;;;;;;;17.90;99.90;;;;;;5112154;28;20324;-63
2022/09/16 07:58:29;;;;;;;;;;;18.50;99.90;;;;;;5111987;27;19919;-63
2022/09/16 08:00:55;;;;;;;;;;;18.30;99.90;;;;;;5120888;27;19923;-63
2022/09/16 08:03:21;;;;;;;;;;;17.70;99.90;;;;;;5114168;27;20272;-63
2022/09/16 08:05:46;;;;;;;;;;;17.10;99.90;;;;;;5129472;27;20002;-62
2022/09/16 08:08:12;;;;;;;;;;;16.60;99.90;;;;;;5126225;27;19927;-63
2022/09/16 08:10:38;;;;;;;;;;;16.50;99.90;;;;;;5101483;28;19927;-63
2022/09/16 08:13:04;;;;;;;;;;;17.50;99.90;;;;;;5131254;27;19923;-63
2022/09/16 08:15:29;;;;;;;;;;;18.90;99.90;;;;;;5131525;27;19970;-66
2022/09/16 08:17:55;;;;;;;;;;;19.90;99.90;;;;;;5126398;27;19962;-63
2022/09/16 08:20:21;;;;;;;;;;;20.80;99.90;;;;;;5105600;28;19919;-63
2022/09/16 08:22:46;;;;;;;;;;;21.50;99.90;;;;;;5087383;28;19919;-64
2022/09/16 08:25:12;;;;;;;;;;;22.20;98.30;;;;;;5113331;28;19923;-63
2022/09/16 08:27:37;;;;;;;;;;;23.00;96.50;;;;;;5110445;27;20014;-63
2022/09/16 08:30:03;;;;;;;;;;;23.50;95.00;;;;;;5084042;27;19924;-63
2022/09/16 08:32:30;;;;;;;;;;;23.90;92.60;;;;;;5109300;28;19920;-63
2022/09/16 08:34:55;;;;;;;;;;;23.70;91.70;;;;;;5109293;28;19971;-63
2022/09/16 08:37:21;;;;;;;;;;;23.50;92.20;;;;;;5109594;28;20052;-63
2022/09/16 08:39:50;;;;;;;;;;;23.70;91.20;;;;;;5110577;28;19927;-63
2022/09/16 08:42:21;;;;;;;;;;;23.80;90.70;;;;;;5116785;27;19926;-63
2022/09/16 08:45:08;;;;;;;;;;;23.80;91.60;;;;;;5109401;28;19919;-64
2022/09/16 08:47:47;;;;;;;;;;;23.80;90.10;;;;;;5092201;28;19963;-65
2022/09/16 08:50:15;;;;;;;;;;;23.30;89.20;;;;;;5110607;28;20038;-63
2022/09/16 08:52:42;;;;;;;;;;;23.20;90.00;;;;;;5085194;27;20411;-63
2022/09/16 08:55:14;;;;;;;;;;;23.10;90.50;;;;;;5110484;28;20315;-63
2022/09/16 08:57:42;;;;;;;;;;;23.00;90.40;;;;;;5110032;28;19920;-63
2022/09/16 09:00:15;;;;;;;;;;;22.60;91.10;;;;;;5109704;28;19919;-63
2022/09/16 09:02:40;;;;;;;;;;;22.40;91.80;;;;;;5100736;28;19920;-62
2022/09/16 09:05:17;;;;;;;;;;;21.70;92.40;;;;;;5111853;27;19972;-63
2022/09/16 09:07:54;;;;;;;;;;;20.80;92.70;;;;;;5109361;28;20333;-61
2022/09/16 09:10:19;;;;;;;;;;;20.30;93.20;;;;;;5109766;28;20295;-63
2022/09/16 09:12:48;;;;;;;;;;;21.00;92.20;;;;;;5109230;28;19972;-63
2022/09/16 09:15:15;;;;;;;;;;;21.30;92.50;;;;;;5111829;28;19923;-63
2022/09/16 09:17:41;;;;;;;;;;;21.10;92.40;;;;;;5108886;27;19942;-63
2022/09/16 09:20:39;;;;;;;;;;;20.20;92.80;;;;;;5113199;27;19919;-63
2022/09/16 09:23:23;;;;;;;;;;;19.60;92.80;;;;;;5059087;28;19971;-63
2022/09/16 09:25:56;;;;;;;;;;;19.10;93.20;;;;;;5109648;28;19920;-63
2022/09/16 09:28:37;;;;;;;;;;;18.90;93.10;;;;;;5112398;27;20057;-63
2022/09/16 09:31:16;;;;;;;;;;;18.80;93.60;;;;;;5123901;27;19933;-63
2022/09/16 09:33:49;;;;;;;;;;;18.80;93.70;;;;;;5124037;27;19931;-63
2022/09/16 09:36:28;;;;;;;;;;;18.70;92.50;;;;;;5105085;27;19974;-62
2022/09/16 09:39:15;;;;;;;;;;;18.40;93.70;;;;;;5113219;28;20281;-63
2022/09/16 09:41:56;;;;;;;;;;;18.40;93.10;;;;;;5113418;28;19927;-65
2022/09/16 09:44:25;;;;;;;;;;;18.30;93.50;;;;;;5099494;27;20164;-63
2022/09/16 09:46:55;;;;;;;;;;;18.50;94.30;;;;;;5094606;28;19923;-68
2022/09/16 09:49:32;;;;;;;;;;;17.30;99.90;;;;;;5093280;28;20053;-64
2022/09/16 09:51:58;;;;;;;;;;;16.10;99.90;;;;;;5093313;28;19920;-63
2022/09/16 09:54:24;;;;;;;;;;;15.30;99.90;;;;;;5097017;27;20045;-65
2022/09/16 09:56:52;;;;;;;;;;;15.00;99.90;;;;;;5100362;27;20579;-64
2022/09/16 09:59:20;;;;;;;;;;;15.00;99.90;;;;;;5096110;28;20306;-64
2022/09/16 10:01:51;;;;;;;;;;;14.90;99.90;;;;;;5094077;28;20304;-63
2022/09/16 10:04:17;;;;;;;;;;;15.10;99.90;;;;;;5093613;28;19972;-62
2022/09/16 10:06:44;;;;;;;;;;;15.30;99.90;;;;;;5095346;28;19990;-66
2022/09/16 10:09:14;;;;;;;;;;;15.50;99.90;;;;;;5107655;27;19961;-62
2022/09/16 10:11:50;;;;;;;;;;;15.60;99.90;;;;;;5091453;28;19947;-63
2022/09/16 10:14:25;;;;;;;;;;;15.70;99.90;;;;;;5108636;28;20029;-62
2022/09/16 10:16:51;;;;;;;;;;;15.90;99.90;;;;;;5110720;27;19927;-62
2022/09/16 10:19:24;;;;;;;;;;;16.00;99.90;;;;;;5097370;28;19920;-62
2022/09/16 10:22:10;;;;;;;;;;;16.20;99.90;;;;;;5111055;27;19920;-61
2022/09/16 10:24:35;;;;;;;;;;;16.40;99.90;;;;;;5113402;28;19974;-62
2022/09/16 10:27:16;;;;;;;;;;;16.60;99.90;;;;;;5099505;28;20158;-62
2022/09/16 10:29:41;;;;;;;;;;;16.70;99.90;;;;;;5100705;28;20412;-63
2022/09/16 10:32:08;;;;;;;;;;;16.80;99.90;;;;;;5099843;28;20003;-62
2022/09/16 10:34:36;;;;;;;;;;;16.90;99.90;;;;;;5109314;27;20384;-62
2022/09/16 10:37:02;;;;;;;;;;;17.00;99.90;;;;;;5100435;27;19943;-63
2022/09/16 10:39:28;;;;;;;;;;;17.00;99.90;;;;;;5092949;28;20292;-62
2022/09/16 10:41:53;;;;;;;;;;;16.80;99.90;;;;;;5092032;28;20013;-62
2022/09/16 10:44:22;;;;;;;;;;;16.70;99.90;;;;;;5095867;27;20278;-61
2022/09/16 10:46:57;;;;;;;;;;;16.60;99.90;;;;;;5093288;28;19929;-67
2022/09/16 10:49:26;;;;;;;;;;;16.50;99.90;;;;;;5092285;28;19928;-63
2022/09/16 10:51:52;;;;;;;;;;;16.70;99.90;;;;;;5091889;28;19928;-63
2022/09/16 10:54:26;;;;;;;;;;;16.80;99.90;;;;;;5096686;27;19930;-62
2022/09/16 10:56:52;;;;;;;;;;;17.00;99.90;;;;;;5090918;28;19928;-63
2022/09/16 10:59:18;;;;;;;;;;;17.20;99.90;;;;;;5113602;27;19956;-63
2022/09/16 11:01:50;;;;;;;;;;;17.40;99.90;;;;;;5093715;28;19958;-62
2022/09/16 11:04:34;;;;;;;;;;;17.60;99.90;;;;;;5091454;28;19920;-63
2022/09/16 11:07:03;;;;;;;;;;;17.80;98.60;;;;;;5091239;27;19924;-64
2022/09/16 11:09:38;;;;;;;;;;;17.80;99.90;;;;;;5095231;28;19926;-63
2022/09/16 11:12:03;;;;;;;;;;;17.40;99.90;;;;;;5090582;28;19920;-63
2022/09/16 11:14:29;;;;;;;;;;;16.90;99.90;;;;;;5091682;28;19965;-63
2022/09/16 11:17:17;;;;;;;;;;;16.60;99.90;;;;;;5103090;27;19920;-64
2022/09/16 11:19:53;;;;;;;;;;;16.40;99.90;;;;;;5092659;28;19967;-63
2022/09/16 11:22:19;;;;;;;;;;;16.40;99.90;;;;;;5097176;28;20012;-62
2022/09/16 11:24:57;;;;;;;;;;;16.40;99.90;;;;;;5095305;28;20007;-63
2022/09/16 11:27:28;;;;;;;;;;;16.50;99.90;;;;;;5095411;27;19923;-62
2022/09/16 11:30:02;;;;;;;;;;;16.70;99.80;;;;;;5099057;28;20007;-66
2022/09/16 11:32:28;;;;;;;;;;;16.90;98.50;;;;;;5100026;27;19923;-62
2022/09/16 11:34:53;;;;;;;;;;;17.00;98.60;;;;;;5091293;28;19924;-63
2022/09/16 11:37:23;;;;;;;;;;;17.20;98.30;;;;;;5098659;27;19919;-62
2022/09/16 11:39:54;;;;;;;;;;;17.30;98.50;;;;;;5101602;28;20391;-63
2022/09/16 11:42:20;;;;;;;;;;;17.40;98.60;;;;;;5090710;28;19924;-62
2022/09/16 11:44:51;;;;;;;;;;;17.40;98.40;;;;;;5094973;27;19952;-62
2022/09/16 11:47:26;;;;;;;;;;;17.50;97.90;;;;;;5097913;27;20002;-62
2022/09/16 11:50:10;;;;;;;;;;;17.60;98.20;;;;;;5091949;28;20428;-62
2022/09/16 11:53:08;;;;;;;;;;;17.80;97.80;;;;;;5090057;28;20385;-62
2022/09/16 11:55:38;;;;;;;;;;;17.90;97.00;;;;;;5064581;28;19966;-61
2022/09/16 11:58:13;;;;;;;;;;;18.00;97.10;;;;;;5094410;27;19928;-62
2022/09/16 12:00:39;;;;;;;;;;;17.90;96.30;;;;;;5092939;27;20289;-62
2022/09/16 12:03:24;;;;;;;;;;;17.80;95.80;;;;;;5090073;28;19960;-62
2022/09/16 12:06:03;;;;;;;;;;;17.70;96.30;;;;;;5096662;27;19930;-61
2022/09/16 12:08:29;;;;;;;;;;;17.70;96.40;;;;;;5092910;28;19992;-64
2022/09/16 12:10:57;;;;;;;;;;;17.60;96.40;;;;;;5096549;28;20361;-60
2022/09/16 12:13:28;;;;;;;;;;;17.60;96.30;;;;;;5091875;28;19924;-59
2022/09/16 12:15:59;;;;;;;;;;;17.60;96.00;;;;;;5101689;27;19923;-61
2022/09/16 12:18:28;;;;;;;;;;;17.60;95.50;;;;;;5107184;27;19923;-64
2022/09/16 12:21:02;;;;;;;;;;;17.70;95.30;;;;;;5118673;27;19928;-64
2022/09/16 12:23:29;;;;;;;;;;;17.70;94.50;;;;;;5095396;28;19924;-61
2022/09/16 12:26:16;;;;;;;;;;;17.70;95.00;;;;;;5092596;28;20369;-62
2022/09/16 12:29:05;;;;;;;;;;;17.60;95.10;;;;;;5091817;28;20372;-59
2022/09/16 12:31:33;;;;;;;;;;;17.60;96.00;;;;;;5065461;28;19924;-67
2022/09/16 12:34:01;;;;;;;;;;;17.80;95.80;;;;;;5075569;28;19928;-64
2022/09/16 12:36:30;;;;;;;;;;;17.80;96.10;;;;;;5096192;28;20250;-64
2022/09/16 12:38:59;;;;;;;;;;;17.80;96.20;;;;;;5091241;27;19928;-65
2022/09/16 12:41:27;;;;;;;;;;;17.70;97.20;;;;;;5088657;28;20002;-65
2022/09/16 12:44:11;;;;;;;;;;;17.60;97.70;;;;;;5096725;28;20397;-64
2022/09/16 12:46:49;;;;;;;;;;;17.40;98.20;;;;;;5110439;28;19926;-62
2022/09/16 12:49:33;;;;;;;;;;;17.20;97.40;;;;;;5097932;28;20312;-63
2022/09/16 12:51:58;;;;;;;;;;;17.10;98.10;;;;;;5114263;28;19991;-63
2022/09/16 12:54:30;;;;;;;;;;;17.00;98.80;;;;;;5109600;28;20018;-64
2022/09/16 12:57:03;;;;;;;;;;;16.90;98.40;;;;;;5111717;28;19926;-61
2022/09/16 12:59:43;;;;;;;;;;;17.00;98.30;;;;;;5115971;27;20380;-61
2022/09/16 13:02:11;;;;;;;;;;;17.00;97.20;;;;;;5095880;28;19923;-60
2022/09/16 13:04:38;;;;;;;;;;;16.90;96.50;;;;;;5114032;27;19956;-60
2022/09/16 13:07:05;;;;;;;;;;;16.90;97.50;;;;;;5119864;27;19978;-61
2022/09/16 13:09:39;;;;;;;;;;;16.90;97.20;;;;;;5124258;27;19919;-60
2022/09/16 13:12:16;;;;;;;;;;;16.70;98.20;;;;;;5120042;27;20305;-61
2022/09/16 13:14:44;;;;;;;;;;;16.50;99.90;;;;;;5115165;27;19976;-61
2022/09/16 13:17:10;;;;;;;;;;;16.10;99.90;;;;;;5113897;27;19919;-60
2022/09/16 13:19:36;;;;;;;;;;;15.70;99.90;;;;;;5121882;27;19927;-61
2022/09/16 13:22:13;;;;;;;;;;;15.40;99.90;;;;;;5117202;27;19931;-62
2022/09/16 13:24:40;;;;;;;;;;;15.20;99.90;;;;;;5117917;27;20025;-62
2022/09/16 13:27:25;;;;;;;;;;;15.00;99.90;;;;;;5113524;28;19935;-61
2022/09/16 13:29:50;;;;;;;;;;;14.80;99.90;;;;;;5098226;27;19923;-61
2022/09/16 13:32:27;;;;;;;;;;;14.70;99.90;;;;;;5117962;27;20391;-61
2022/09/16 13:35:03;;;;;;;;;;;14.60;99.90;;;;;;5113579;27;19928;-60
2022/09/16 13:37:28;;;;;;;;;;;14.50;99.90;;;;;;5116258;27;19942;-60
2022/09/16 13:39:54;;;;;;;;;;;14.40;99.90;;;;;;5120285;27;19922;-60
2022/09/16 13:42:20;;;;;;;;;;;14.40;99.90;;;;;;5125212;27;19923;-60
2022/09/16 13:44:46;;;;;;;;;;;14.30;99.90;;;;;;5099549;27;19924;-61
2022/09/16 13:47:12;;;;;;;;;;;14.40;99.90;;;;;;5123784;27;19920;-62
2022/09/16 13:49:44;;;;;;;;;;;14.40;99.90;;;;;;5079149;28;19920;-61
2022/09/16 13:52:11;;;;;;;;;;;14.40;99.90;;;;;;5110541;27;20380;-61
2022/09/16 13:54:47;;;;;;;;;;;14.40;99.90;;;;;;5089926;27;19926;-62
2022/09/16 13:57:21;;;;;;;;;;;14.50;99.90;;;;;;5094095;28;19927;-61
2022/09/16 13:59:53;;;;;;;;;;;14.70;99.90;;;;;;5117157;27;20384;-62
2022/09/16 14:02:26;;;;;;;;;;;14.80;99.90;;;;;;5110807;27;19920;-62
2022/09/16 14:05:09;;;;;;;;;;;14.90;99.90;;;;;;5115207;27;19948;-61
2022/09/16 14:07:41;;;;;;;;;;;15.00;99.90;;;;;;5120005;27;20372;-61
2022/09/16 14:10:06;;;;;;;;;;;15.20;99.90;;;;;;5128862;27;20388;-61
2022/09/16 14:12:35;;;;;;;;;;;15.30;99.90;;;;;;5118203;27;19967;-62
2022/09/16 14:15:01;;;;;;;;;;;15.50;99.90;;;;;;5097793;28;20282;-62
2022/09/16 14:17:36;;;;;;;;;;;15.50;99.90;;;;;;5125406;27;20306;-60
2022/09/16 14:20:02;;;;;;;;;;;15.60;99.90;;;;;;5114943;27;19927;-62
2022/09/16 14:22:28;;;;;;;;;;;15.60;99.90;;;;;;5110110;27;19937;-61
2022/09/16 14:24:54;;;;;;;;;;;15.70;99.90;;;;;;5133922;27;19920;-61
2022/09/16 14:27:32;;;;;;;;;;;15.70;99.90;;;;;;5123593;27;20408;-61
2022/09/16 14:29:59;;;;;;;;;;;15.60;99.90;;;;;;5116965;27;19920;-62